sensor_id;sensor_type;location;lat;lon;timestamp;pressure;altitude;pressure_sealevel;temperature;humidity
21826;BME280;11075;47.944;11.776;2023-03-14T00:01:51;93266.78;;;10.24;28.97
21826;BME280;11075;47.944;11.776;2023-03-14T00:04:18;93249.03;;;8.96;30.66
21826;BME280;11075;47.944;11.776;2023-03-14T00:06:45;93242.63;;;9.04;30.75
21826;BME280;11075;47.944;11.776;2023-03-14T00:09:13;93253.06;;;10.32;28.48
21826;BME280;11075;47.944;11.776;2023-03-14T00:11:40;93190.56;;;8.63;30.92
21826;BME280;11075;47.944;11.776;2023-03-14T00:14:07;93142.16;;;7.06;33.76
21826;BME280;11075;47.944;11.776;2023-03-14T00:16:34;93174.59;;;8.96;31.13
21826;BME280;11075;47.944;11.776;2023-03-14T00:19:01;93206.34;;;9.77;29.33
21826;BME280;11075;47.944;11.776;2023-03-14T00:21:28;93202.72;;;8.30;31.59
21826;BME280;11075;47.944;11.776;2023-03-14T00:23:55;93206.28;;;8.61;31.50
21826;BME280;11075;47.944;11.776;2023-03-14T00:26:21;93208.66;;;10.15;29.15
21826;BME280;11075;47.944;11.776;2023-03-14T00:28:53;93211.22;;;9.08;30.64
21826;BME280;11075;47.944;11.776;2023-03-14T00:31:21;93223.28;;;9.81;29.99
21826;BME280;11075;47.944;11.776;2023-03-14T00:33:51;93224.81;;;8.92;30.91
21826;BME280;11075;47.944;11.776;2023-03-14T00:36:19;93213.09;;;9.64;29.87
21826;BME280;11075;47.944;11.776;2023-03-14T00:38:51;93216.63;;;10.42;28.90
21826;BME280;11075;47.944;11.776;2023-03-14T00:41:21;93207.66;;;9.30;30.39
21826;BME280;11075;47.944;11.776;2023-03-14T00:43:50;93197.75;;;9.64;29.71
21826;BME280;11075;47.944;11.776;2023-03-14T00:46:19;93206.38;;;9.50;30.33
21826;BME280;11075;47.944;11.776;2023-03-14T00:48:46;93194.78;;;9.43;29.99
21826;BME280;11075;47.944;11.776;2023-03-14T00:51:13;93199.91;;;9.25;30.77
21826;BME280;11075;47.944;11.776;2023-03-14T00:53:43;93212.34;;;10.00;29.90
21826;BME280;11075;47.944;11.776;2023-03-14T00:56:11;93219.19;;;10.28;29.36
21826;BME280;11075;47.944;11.776;2023-03-14T00:58:39;93235.69;;;10.26;29.68
21826;BME280;11075;47.944;11.776;2023-03-14T01:01:08;93232.09;;;10.15;29.62
21826;BME280;11075;47.944;11.776;2023-03-14T01:03:36;93261.50;;;11.92;27.34
21826;BME280;11075;47.944;11.776;2023-03-14T01:06:08;93262.44;;;11.48;28.09
21826;BME280;11075;47.944;11.776;2023-03-14T01:08:35;93251.25;;;10.91;29.06
21826;BME280;11075;47.944;11.776;2023-03-14T01:11:07;93255.81;;;11.35;28.50
21826;BME280;11075;47.944;11.776;2023-03-14T01:13:35;93233.91;;;9.40;30.72
21826;BME280;11075;47.944;11.776;2023-03-14T01:16:04;93191.41;;;9.19;31.57
21826;BME280;11075;47.944;11.776;2023-03-14T01:18:37;93197.19;;;10.22;30.16
21826;BME280;11075;47.944;11.776;2023-03-14T01:21:14;93178.28;;;7.51;34.39
21826;BME280;11075;47.944;11.776;2023-03-14T01:23:42;93198.88;;;9.63;31.61
21826;BME280;11075;47.944;11.776;2023-03-14T01:26:11;93193.41;;;9.90;31.09
21826;BME280;11075;47.944;11.776;2023-03-14T01:28:38;93191.97;;;9.99;30.82
21826;BME280;11075;47.944;11.776;2023-03-14T01:31:08;93189.44;;;9.46;31.75
21826;BME280;11075;47.944;11.776;2023-03-14T01:33:37;93173.34;;;10.24;30.76
21826;BME280;11075;47.944;11.776;2023-03-14T01:36:05;93187.31;;;10.85;30.21
21826;BME280;11075;47.944;11.776;2023-03-14T01:38:33;93163.63;;;9.08;32.80
21826;BME280;11075;47.944;11.776;2023-03-14T01:41:02;93177.72;;;9.62;32.31
21826;BME280;11075;47.944;11.776;2023-03-14T01:43:30;93167.31;;;9.94;32.32
21826;BME280;11075;47.944;11.776;2023-03-14T01:48:42;93190.34;;;9.91;32.73
21826;BME280;11075;47.944;11.776;2023-03-14T01:51:16;93161.34;;;8.31;35.63
21826;BME280;11075;47.944;11.776;2023-03-14T01:53:45;93153.63;;;8.30;35.79
21826;BME280;11075;47.944;11.776;2023-03-14T01:56:14;93206.44;;;11.24;31.42
21826;BME280;11075;47.944;11.776;2023-03-14T01:58:46;93207.75;;;10.93;31.67
21826;BME280;11075;47.944;11.776;2023-03-14T02:01:16;93213.59;;;10.98;31.29
21826;BME280;11075;47.944;11.776;2023-03-14T02:03:50;93197.06;;;11.00;31.70
21826;BME280;11075;47.944;11.776;2023-03-14T02:06:24;93190.88;;;10.44;32.57
21826;BME280;11075;47.944;11.776;2023-03-14T02:08:56;93196.13;;;11.40;31.60
21826;BME280;11075;47.944;11.776;2023-03-14T02:11:28;93188.56;;;10.46;33.33
21826;BME280;11075;47.944;11.776;2023-03-14T02:14:07;93190.78;;;9.97;33.74
21826;BME280;11075;47.944;11.776;2023-03-14T02:17:04;93200.28;;;10.24;33.59
21826;BME280;11075;47.944;11.776;2023-03-14T02:20:26;93192.88;;;9.77;34.43
21826;BME280;11075;47.944;11.776;2023-03-14T02:22:56;93197.25;;;9.25;35.15
21826;BME280;11075;47.944;11.776;2023-03-14T02:28:05;93206.03;;;9.86;34.56
21826;BME280;11075;47.944;11.776;2023-03-14T02:30:33;93213.94;;;9.71;34.69
21826;BME280;11075;47.944;11.776;2023-03-14T02:33:05;93202.69;;;9.02;36.04
21826;BME280;11075;47.944;11.776;2023-03-14T02:35:39;93185.34;;;7.40;38.36
21826;BME280;11075;47.944;11.776;2023-03-14T02:38:17;93235.06;;;9.69;34.22
21826;BME280;11075;47.944;11.776;2023-03-14T02:40:49;93229.44;;;8.95;35.86
21826;BME280;11075;47.944;11.776;2023-03-14T02:43:16;93222.78;;;8.63;36.08
21826;BME280;11075;47.944;11.776;2023-03-14T02:45:50;93217.84;;;8.42;36.67
21826;BME280;11075;47.944;11.776;2023-03-14T02:48:28;93218.34;;;8.97;35.76
21826;BME280;11075;47.944;11.776;2023-03-14T02:50:57;93206.47;;;8.03;36.81
21826;BME280;11075;47.944;11.776;2023-03-14T02:53:29;93214.19;;;9.59;35.09
21826;BME280;11075;47.944;11.776;2023-03-14T02:55:59;93206.34;;;9.17;34.72
21826;BME280;11075;47.944;11.776;2023-03-14T02:58:28;93193.50;;;9.03;35.62
21826;BME280;11075;47.944;11.776;2023-03-14T03:01:03;93175.66;;;8.65;36.09
21826;BME280;11075;47.944;11.776;2023-03-14T03:03:30;93174.25;;;8.48;36.26
21826;BME280;11075;47.944;11.776;2023-03-14T03:05:57;93176.69;;;9.10;35.36
21826;BME280;11075;47.944;11.776;2023-03-14T03:08:26;93188.69;;;8.90;34.51
21826;BME280;11075;47.944;11.776;2023-03-14T03:10:56;93184.78;;;8.11;36.94
21826;BME280;11075;47.944;11.776;2023-03-14T03:13:24;93230.13;;;9.45;34.02
21826;BME280;11075;47.944;11.776;2023-03-14T03:15:54;93208.78;;;7.85;36.91
21826;BME280;11075;47.944;11.776;2023-03-14T03:18:22;93189.91;;;6.85;39.84
21826;BME280;11075;47.944;11.776;2023-03-14T03:20:49;93184.34;;;6.27;39.78
21826;BME280;11075;47.944;11.776;2023-03-14T03:23:16;93184.56;;;7.58;36.74
21826;BME280;11075;47.944;11.776;2023-03-14T03:25:48;93190.69;;;8.70;35.39
21826;BME280;11075;47.944;11.776;2023-03-14T03:28:16;93153.75;;;7.30;38.04
21826;BME280;11075;47.944;11.776;2023-03-14T03:30:43;93145.22;;;7.24;37.57
21826;BME280;11075;47.944;11.776;2023-03-14T03:33:12;93157.31;;;8.44;35.59
21826;BME280;11075;47.944;11.776;2023-03-14T03:35:47;93151.78;;;7.88;35.50
21826;BME280;11075;47.944;11.776;2023-03-14T03:38:18;93137.03;;;7.55;36.80
21826;BME280;11075;47.944;11.776;2023-03-14T03:40:49;93142.81;;;8.22;35.33
21826;BME280;11075;47.944;11.776;2023-03-14T03:43:16;93142.06;;;7.38;35.78
21826;BME280;11075;47.944;11.776;2023-03-14T03:45:45;93155.50;;;9.35;33.55
21826;BME280;11075;47.944;11.776;2023-03-14T03:48:12;93159.91;;;8.14;35.35
21826;BME280;11075;47.944;11.776;2023-03-14T03:50:45;93157.41;;;7.41;36.51
21826;BME280;11075;47.944;11.776;2023-03-14T03:53:13;93157.66;;;6.97;37.67
21826;BME280;11075;47.944;11.776;2023-03-14T03:55:49;93170.25;;;7.32;36.48
21826;BME280;11075;47.944;11.776;2023-03-14T03:58:16;93142.19;;;5.17;40.30
21826;BME280;11075;47.944;11.776;2023-03-14T04:00:42;93212.59;;;8.49;35.02
21826;BME280;11075;47.944;11.776;2023-03-14T04:03:09;93187.63;;;7.03;37.23
21826;BME280;11075;47.944;11.776;2023-03-14T04:05:37;93176.38;;;6.78;37.93
21826;BME280;11075;47.944;11.776;2023-03-14T04:08:08;93205.50;;;7.53;35.75
21826;BME280;11075;47.944;11.776;2023-03-14T04:10:36;93208.63;;;8.88;33.47
21826;BME280;11075;47.944;11.776;2023-03-14T04:13:09;93194.84;;;8.41;34.08
21826;BME280;11075;47.944;11.776;2023-03-14T04:15:39;93191.38;;;8.17;34.77
21826;BME280;11075;47.944;11.776;2023-03-14T04:18:12;93136.25;;;4.07;39.77
21826;BME280;11075;47.944;11.776;2023-03-14T04:20:38;93207.72;;;8.32;34.14
21826;BME280;11075;47.944;11.776;2023-03-14T04:23:05;93194.56;;;7.62;34.81
21826;BME280;11075;47.944;11.776;2023-03-14T04:25:33;93192.16;;;8.18;34.21
21826;BME280;11075;47.944;11.776;2023-03-14T04:28:03;93155.56;;;7.64;34.94
21826;BME280;11075;47.944;11.776;2023-03-14T04:30:31;93153.53;;;7.38;34.83
21826;BME280;11075;47.944;11.776;2023-03-14T04:33:04;93125.06;;;6.56;36.69
21826;BME280;11075;47.944;11.776;2023-03-14T04:35:33;93138.59;;;7.79;34.93
21826;BME280;11075;47.944;11.776;2023-03-14T04:38:06;93178.63;;;9.43;32.01
21826;BME280;11075;47.944;11.776;2023-03-14T04:40:40;93111.13;;;6.16;37.01
21826;BME280;11075;47.944;11.776;2023-03-14T04:43:10;93129.69;;;7.52;35.19
21826;BME280;11075;47.944;11.776;2023-03-14T04:45:44;93162.19;;;7.93;33.48
21826;BME280;11075;47.944;11.776;2023-03-14T04:48:12;93112.50;;;6.10;37.08
21826;BME280;11075;47.944;11.776;2023-03-14T04:50:40;93133.28;;;7.02;36.13
21826;BME280;11075;47.944;11.776;2023-03-14T04:53:07;93162.91;;;8.59;33.35
21826;BME280;11075;47.944;11.776;2023-03-14T04:55:34;93147.22;;;7.69;34.48
21826;BME280;11075;47.944;11.776;2023-03-14T04:58:02;93140.16;;;8.26;34.27
21826;BME280;11075;47.944;11.776;2023-03-14T05:00:29;93157.16;;;8.83;32.62
21826;BME280;11075;47.944;11.776;2023-03-14T05:03:34;93113.34;;;8.26;34.21
21826;BME280;11075;47.944;11.776;2023-03-14T05:06:14;93069.38;;;5.48;37.98
21826;BME280;11075;47.944;11.776;2023-03-14T05:09:01;93114.78;;;7.74;35.27
21826;BME280;11075;47.944;11.776;2023-03-14T05:11:50;93126.94;;;7.91;34.23
21826;BME280;11075;47.944;11.776;2023-03-14T05:14:30;93114.06;;;8.76;33.11
21826;BME280;11075;47.944;11.776;2023-03-14T05:17:23;93118.38;;;9.81;31.77
21826;BME280;11075;47.944;11.776;2023-03-14T05:20:08;93093.69;;;9.01;32.65
21826;BME280;11075;47.944;11.776;2023-03-14T05:23:09;93083.75;;;8.75;33.21
21826;BME280;11075;47.944;11.776;2023-03-14T05:25:54;93124.47;;;10.15;30.51
21826;BME280;11075;47.944;11.776;2023-03-14T05:28:27;93069.59;;;8.22;34.01
21826;BME280;11075;47.944;11.776;2023-03-14T05:31:08;93085.78;;;8.55;32.97
21826;BME280;11075;47.944;11.776;2023-03-14T05:34:10;93060.44;;;7.77;34.60
21826;BME280;11075;47.944;11.776;2023-03-14T05:36:54;93093.16;;;8.62;32.53
21826;BME280;11075;47.944;11.776;2023-03-14T05:39:45;93083.13;;;8.85;33.14
21826;BME280;11075;47.944;11.776;2023-03-14T05:42:38;93120.16;;;10.51;30.54
21826;BME280;11075;47.944;11.776;2023-03-14T05:45:25;93054.25;;;7.50;34.73
21826;BME280;11075;47.944;11.776;2023-03-14T05:48:14;93056.97;;;8.00;34.08
21826;BME280;11075;47.944;11.776;2023-03-14T05:51:03;93073.97;;;8.60;33.10
21826;BME280;11075;47.944;11.776;2023-03-14T05:54:05;93104.28;;;9.95;31.11
21826;BME280;11075;47.944;11.776;2023-03-14T05:56:56;93060.19;;;8.35;33.55
21826;BME280;11075;47.944;11.776;2023-03-14T05:59:52;93055.03;;;7.74;34.42
21826;BME280;11075;47.944;11.776;2023-03-14T06:02:37;93135.25;;;11.39;29.16
21826;BME280;11075;47.944;11.776;2023-03-14T06:05:14;93122.91;;;11.27;29.22
21826;BME280;11075;47.944;11.776;2023-03-14T06:07:41;93064.94;;;8.75;32.82
21826;BME280;11075;47.944;11.776;2023-03-14T06:10:09;93091.13;;;9.82;31.13
21826;BME280;11075;47.944;11.776;2023-03-14T06:12:37;93131.34;;;11.26;29.24
21826;BME280;11075;47.944;11.776;2023-03-14T06:15:04;93108.50;;;10.36;30.10
21826;BME280;11075;47.944;11.776;2023-03-14T06:17:32;93130.53;;;11.11;29.18
21826;BME280;11075;47.944;11.776;2023-03-14T06:20:08;93141.25;;;12.08;27.94
21826;BME280;11075;47.944;11.776;2023-03-14T06:22:35;93116.34;;;11.28;29.24
21826;BME280;11075;47.944;11.776;2023-03-14T06:25:02;93086.72;;;10.08;30.62
21826;BME280;11075;47.944;11.776;2023-03-14T06:27:30;93108.63;;;11.20;29.23
21826;BME280;11075;47.944;11.776;2023-03-14T06:29:58;93113.59;;;11.10;29.15
21826;BME280;11075;47.944;11.776;2023-03-14T06:32:25;93073.56;;;9.96;31.26
21826;BME280;11075;47.944;11.776;2023-03-14T06:34:57;93081.47;;;10.84;29.47
21826;BME280;11075;47.944;11.776;2023-03-14T06:37:29;93094.19;;;11.85;28.10
21826;BME280;11075;47.944;11.776;2023-03-14T06:39:57;93098.06;;;12.05;28.22
21826;BME280;11075;47.944;11.776;2023-03-14T06:42:44;93096.91;;;12.56;27.26
21826;BME280;11075;47.944;11.776;2023-03-14T06:45:14;93063.75;;;10.21;30.34
21826;BME280;11075;47.944;11.776;2023-03-14T06:47:41;93079.00;;;11.27;29.21
21826;BME280;11075;47.944;11.776;2023-03-14T06:50:11;93099.59;;;12.13;28.59
21826;BME280;11075;47.944;11.776;2023-03-14T06:52:39;93060.75;;;10.26;30.76
21826;BME280;11075;47.944;11.776;2023-03-14T06:55:19;93090.09;;;11.11;29.19
21826;BME280;11075;47.944;11.776;2023-03-14T06:57:48;93107.22;;;11.61;28.82
21826;BME280;11075;47.944;11.776;2023-03-14T07:00:15;93072.94;;;9.69;31.53
21826;BME280;11075;47.944;11.776;2023-03-14T07:02:42;93062.81;;;9.96;31.46
21826;BME280;11075;47.944;11.776;2023-03-14T07:05:23;93099.47;;;11.46;29.20
21826;BME280;11075;47.944;11.776;2023-03-14T07:07:50;93079.06;;;10.65;30.52
21826;BME280;11075;47.944;11.776;2023-03-14T07:10:17;93039.28;;;8.78;33.26
21826;BME280;11075;47.944;11.776;2023-03-14T07:12:44;93033.22;;;8.81;33.50
21826;BME280;11075;47.944;11.776;2023-03-14T07:15:11;93021.56;;;7.90;34.66
21826;BME280;11075;47.944;11.776;2023-03-14T07:17:48;93043.09;;;9.07;33.36
21826;BME280;11075;47.944;11.776;2023-03-14T07:20:17;93066.06;;;9.71;32.16
21826;BME280;11075;47.944;11.776;2023-03-14T07:22:47;93032.06;;;8.82;34.10
21826;BME280;11075;47.944;11.776;2023-03-14T07:25:15;93034.63;;;8.15;34.39
21826;BME280;11075;47.944;11.776;2023-03-14T07:27:44;93064.13;;;10.20;31.42
21826;BME280;11075;47.944;11.776;2023-03-14T07:30:12;93043.78;;;9.74;32.30
21826;BME280;11075;47.944;11.776;2023-03-14T07:32:39;93077.16;;;10.69;30.94
21826;BME280;11075;47.944;11.776;2023-03-14T07:35:07;93082.81;;;11.19;30.21
21826;BME280;11075;47.944;11.776;2023-03-14T07:37:38;93017.69;;;8.11;34.29
21826;BME280;11075;47.944;11.776;2023-03-14T07:40:05;93088.59;;;11.21;30.15
21826;BME280;11075;47.944;11.776;2023-03-14T07:42:35;93045.75;;;9.77;32.56
21826;BME280;11075;47.944;11.776;2023-03-14T07:45:28;93052.28;;;9.39;32.65
21826;BME280;11075;47.944;11.776;2023-03-14T07:47:55;93063.78;;;10.25;31.95
21826;BME280;11075;47.944;11.776;2023-03-14T07:50:25;93103.97;;;11.13;29.81
21826;BME280;11075;47.944;11.776;2023-03-14T07:52:53;93076.28;;;11.20;30.08
21826;BME280;11075;47.944;11.776;2023-03-14T07:55:20;93025.13;;;8.51;34.30
21826;BME280;11075;47.944;11.776;2023-03-14T07:57:47;93081.69;;;11.30;30.04
21826;BME280;11075;47.944;11.776;2023-03-14T08:00:15;93065.63;;;10.68;31.81
21826;BME280;11075;47.944;11.776;2023-03-14T08:02:42;93023.16;;;8.78;34.21
21826;BME280;11075;47.944;11.776;2023-03-14T08:05:09;93077.06;;;11.24;30.54
21826;BME280;11075;47.944;11.776;2023-03-14T08:07:37;93043.69;;;9.64;32.93
21826;BME280;11075;47.944;11.776;2023-03-14T08:10:04;93065.94;;;10.56;31.27
21826;BME280;11075;47.944;11.776;2023-03-14T08:12:31;93054.00;;;10.02;31.85
21826;BME280;11075;47.944;11.776;2023-03-14T08:14:58;93068.25;;;10.54;31.18
21826;BME280;11075;47.944;11.776;2023-03-14T08:17:26;93107.28;;;12.82;28.28
21826;BME280;11075;47.944;11.776;2023-03-14T08:19:54;93093.75;;;11.68;29.87
21826;BME280;11075;47.944;11.776;2023-03-14T08:22:21;93094.19;;;11.85;30.03
21826;BME280;11075;47.944;11.776;2023-03-14T08:24:48;93084.94;;;12.00;29.32
21826;BME280;11075;47.944;11.776;2023-03-14T08:27:14;93093.47;;;12.34;28.82
21826;BME280;11075;47.944;11.776;2023-03-14T08:29:41;93079.41;;;11.32;30.52
21826;BME280;11075;47.944;11.776;2023-03-14T08:32:09;93074.66;;;10.97;30.88
21826;BME280;11075;47.944;11.776;2023-03-14T08:34:36;93091.88;;;12.01;29.90
21826;BME280;11075;47.944;11.776;2023-03-14T08:37:05;93065.41;;;11.02;31.34
21826;BME280;11075;47.944;11.776;2023-03-14T08:39:49;93086.78;;;11.60;30.33
21826;BME280;11075;47.944;11.776;2023-03-14T08:42:16;93118.84;;;13.00;28.39
21826;BME280;11075;47.944;11.776;2023-03-14T08:44:43;93096.25;;;11.11;30.76
21826;BME280;11075;47.944;11.776;2023-03-14T08:47:11;93126.19;;;13.00;28.16
21826;BME280;11075;47.944;11.776;2023-03-14T08:49:39;93077.91;;;10.66;31.82
21826;BME280;11075;47.944;11.776;2023-03-14T08:52:06;93123.88;;;12.88;28.22
21826;BME280;11075;47.944;11.776;2023-03-14T08:54:33;93104.44;;;11.36;30.65
21826;BME280;11075;47.944;11.776;2023-03-14T08:57:00;93113.03;;;11.70;29.92
21826;BME280;11075;47.944;11.776;2023-03-14T08:59:26;93143.56;;;12.92;28.04
21826;BME280;11075;47.944;11.776;2023-03-14T09:01:54;93111.13;;;11.78;30.05
21826;BME280;11075;47.944;11.776;2023-03-14T09:04:21;93073.47;;;10.29;32.78
21826;BME280;11075;47.944;11.776;2023-03-14T09:06:48;93135.00;;;13.25;28.24
21826;BME280;11075;47.944;11.776;2023-03-14T09:09:15;93120.69;;;11.61;30.23
21826;BME280;11075;47.944;11.776;2023-03-14T09:11:42;93058.44;;;9.40;33.73
21826;BME280;11075;47.944;11.776;2023-03-14T09:14:09;93107.16;;;11.47;30.58
21826;BME280;11075;47.944;11.776;2023-03-14T09:16:36;93097.25;;;10.86;31.45
21826;BME280;11075;47.944;11.776;2023-03-14T09:19:03;93136.63;;;12.16;29.32
21826;BME280;11075;47.944;11.776;2023-03-14T09:21:30;93053.81;;;9.03;34.83
21826;BME280;11075;47.944;11.776;2023-03-14T09:23:57;93035.84;;;6.68;39.05
21826;BME280;11075;47.944;11.776;2023-03-14T09:26:25;93099.69;;;9.55;34.53
21826;BME280;11075;47.944;11.776;2023-03-14T09:28:52;93101.53;;;8.83;34.92
21826;BME280;11075;47.944;11.776;2023-03-14T09:31:19;93148.00;;;11.46;30.69
21826;BME280;11075;47.944;11.776;2023-03-14T09:33:46;93103.22;;;10.03;33.27
21826;BME280;11075;47.944;11.776;2023-03-14T09:36:12;93148.19;;;12.10;30.42
21826;BME280;11075;47.944;11.776;2023-03-14T09:38:41;93084.66;;;9.16;33.72
21826;BME280;11075;47.944;11.776;2023-03-14T09:41:14;93105.28;;;10.71;32.32
21826;BME280;11075;47.944;11.776;2023-03-14T09:43:43;93068.81;;;9.41;34.10
21826;BME280;11075;47.944;11.776;2023-03-14T09:46:12;93119.13;;;11.50;30.49
21826;BME280;11075;47.944;11.776;2023-03-14T09:48:41;93103.69;;;10.67;31.61
21826;BME280;11075;47.944;11.776;2023-03-14T09:51:15;93066.75;;;9.65;33.44
21826;BME280;11075;47.944;11.776;2023-03-14T09:53:46;93074.19;;;9.41;34.20
21826;BME280;11075;47.944;11.776;2023-03-14T09:56:19;93102.41;;;10.43;32.21
21826;BME280;11075;47.944;11.776;2023-03-14T09:58:51;93054.72;;;8.28;35.44
21826;BME280;11075;47.944;11.776;2023-03-14T10:01:24;93120.53;;;11.15;30.93
21826;BME280;11075;47.944;11.776;2023-03-14T10:03:58;93123.91;;;12.52;29.57
21826;BME280;11075;47.944;11.776;2023-03-14T10:06:28;93073.72;;;10.72;31.16
21826;BME280;11075;47.944;11.776;2023-03-14T10:08:56;93070.44;;;11.03;31.29
21826;BME280;11075;47.944;11.776;2023-03-14T10:11:25;93067.66;;;10.89;32.03
21826;BME280;11075;47.944;11.776;2023-03-14T10:16:33;93061.69;;;10.00;32.49
21826;BME280;11075;47.944;11.776;2023-03-14T10:19:06;93105.31;;;11.65;30.25
21826;BME280;11075;47.944;11.776;2023-03-14T10:21:38;93094.56;;;11.76;30.39
21826;BME280;11075;47.944;11.776;2023-03-14T10:24:22;93127.06;;;13.74;28.06
21826;BME280;11075;47.944;11.776;2023-03-14T10:26:57;93120.78;;;13.91;27.92
21826;BME280;11075;47.944;11.776;2023-03-14T10:29:26;93118.84;;;13.04;28.14
21826;BME280;11075;47.944;11.776;2023-03-14T10:31:56;93053.22;;;10.50;32.23
21826;BME280;11075;47.944;11.776;2023-03-14T10:34:32;93064.31;;;11.14;31.68
21826;BME280;11075;47.944;11.776;2023-03-14T10:37:06;93115.16;;;13.60;28.61
21826;BME280;11075;47.944;11.776;2023-03-14T10:39:49;93135.31;;;14.18;27.21
21826;BME280;11075;47.944;11.776;2023-03-14T10:42:28;93118.84;;;13.00;27.87
21826;BME280;11075;47.944;11.776;2023-03-14T10:45:03;93153.19;;;13.14;27.16
21826;BME280;11075;47.944;11.776;2023-03-14T10:47:32;93094.97;;;12.21;29.95
21826;BME280;11075;47.944;11.776;2023-03-14T10:50:22;93130.56;;;14.37;27.01
21826;BME280;11075;47.944;11.776;2023-03-14T10:52:52;93127.00;;;13.84;27.61
21826;BME280;11075;47.944;11.776;2023-03-14T10:55:39;93164.84;;;15.43;25.67
21826;BME280;11075;47.944;11.776;2023-03-14T10:58:30;93128.94;;;15.29;26.56
21826;BME280;11075;47.944;11.776;2023-03-14T11:01:26;93117.09;;;11.25;28.38
21826;BME280;11075;47.944;11.776;2023-03-14T11:12:01;93122.81;;;14.39;26.27
21826;BME280;11075;47.944;11.776;2023-03-14T11:14:36;93101.78;;;13.25;28.08
21826;BME280;11075;47.944;11.776;2023-03-14T11:22:46;93140.22;;;15.23;24.84
21826;BME280;11075;47.944;11.776;2023-03-14T11:28:23;93154.28;;;14.70;24.59
21826;BME280;11075;47.944;11.776;2023-03-14T11:30:55;93144.22;;;15.12;24.84
21826;BME280;11075;47.944;11.776;2023-03-14T11:33:29;93077.16;;;10.14;29.07
21826;BME280;11075;47.944;11.776;2023-03-14T11:36:04;93148.88;;;16.10;24.09
21826;BME280;11075;47.944;11.776;2023-03-14T11:41:00;93129.91;;;14.15;25.26
21826;BME280;11075;47.944;11.776;2023-03-14T11:43:35;93097.31;;;13.74;25.68
21826;BME280;11075;47.944;11.776;2023-03-14T11:46:28;93117.50;;;14.21;24.98
21826;BME280;11075;47.944;11.776;2023-03-14T11:51:55;93124.91;;;16.05;23.40
21826;BME280;11075;47.944;11.776;2023-03-14T11:57:21;93078.03;;;13.57;26.86
21826;BME280;11075;47.944;11.776;2023-03-14T12:11:02;93121.34;;;15.13;23.35
21826;BME280;11075;47.944;11.776;2023-03-14T12:13:33;93096.03;;;13.09;25.01
21826;BME280;11075;47.944;11.776;2023-03-14T12:16:05;93087.16;;;13.05;25.35
21826;BME280;11075;47.944;11.776;2023-03-14T12:18:37;93065.66;;;11.98;27.44
21826;BME280;11075;47.944;11.776;2023-03-14T12:21:08;93108.50;;;14.83;23.55
21826;BME280;11075;47.944;11.776;2023-03-14T12:29:16;93106.00;;;15.33;23.78
21826;BME280;11075;47.944;11.776;2023-03-14T12:31:37;93101.09;;;12.85;24.60
21826;BME280;11075;47.944;11.776;2023-03-14T12:48:24;93066.59;;;10.39;26.23
21826;BME280;11075;47.944;11.776;2023-03-14T12:51:00;93071.53;;;10.95;26.88
21826;BME280;11075;47.944;11.776;2023-03-14T12:53:35;93048.91;;;10.38;28.16
21826;BME280;11075;47.944;11.776;2023-03-14T12:59:27;93068.91;;;9.89;28.42
21826;BME280;11075;47.944;11.776;2023-03-14T13:01:59;93059.47;;;10.71;27.48
21826;BME280;11075;47.944;11.776;2023-03-14T13:04:29;93044.72;;;9.93;29.27
21826;BME280;11075;47.944;11.776;2023-03-14T13:07:11;93051.97;;;9.48;29.10
21826;BME280;11075;47.944;11.776;2023-03-14T13:12:47;93069.09;;;11.66;27.78
21826;BME280;11075;47.944;11.776;2023-03-14T13:15:21;93074.97;;;10.27;28.78
21826;BME280;11075;47.944;11.776;2023-03-14T13:17:51;93031.94;;;9.79;30.98
21826;BME280;11075;47.944;11.776;2023-03-14T13:20:34;93043.88;;;11.05;29.51
21826;BME280;11075;47.944;11.776;2023-03-14T13:23:02;93073.00;;;12.22;28.17
21826;BME280;11075;47.944;11.776;2023-03-14T13:25:33;93046.50;;;9.78;30.23
21826;BME280;11075;47.944;11.776;2023-03-14T13:28:01;93065.13;;;10.48;29.96
21826;BME280;11075;47.944;11.776;2023-03-14T13:30:41;93060.69;;;9.71;30.62
21826;BME280;11075;47.944;11.776;2023-03-14T13:33:27;93079.28;;;8.30;30.31
21826;BME280;11075;47.944;11.776;2023-03-14T13:35:59;93076.94;;;9.11;29.10
21826;BME280;11075;47.944;11.776;2023-03-14T13:38:28;93104.25;;;8.87;28.98
21826;BME280;11075;47.944;11.776;2023-03-14T13:40:56;93124.56;;;9.48;28.36
21826;BME280;11075;47.944;11.776;2023-03-14T13:43:32;93099.31;;;9.23;29.31
21826;BME280;11075;47.944;11.776;2023-03-14T13:46:13;93108.47;;;9.18;29.23
21826;BME280;11075;47.944;11.776;2023-03-14T13:48:49;93114.66;;;7.90;30.19
21826;BME280;11075;47.944;11.776;2023-03-14T13:51:18;93097.50;;;8.70;31.19
21826;BME280;11075;47.944;11.776;2023-03-14T13:53:51;93057.44;;;7.17;32.85
21826;BME280;11075;47.944;11.776;2023-03-14T13:56:20;93081.91;;;6.58;33.67
21826;BME280;11075;47.944;11.776;2023-03-14T13:58:48;93119.38;;;6.77;32.46
21826;BME280;11075;47.944;11.776;2023-03-14T14:01:32;93109.47;;;7.16;33.42
21826;BME280;11075;47.944;11.776;2023-03-14T14:04:15;93120.34;;;7.66;33.47
21826;BME280;11075;47.944;11.776;2023-03-14T14:06:54;93118.25;;;7.55;33.80
21826;BME280;11075;47.944;11.776;2023-03-14T14:09:37;93106.88;;;7.01;35.03
21826;BME280;11075;47.944;11.776;2023-03-14T14:12:08;93130.66;;;8.06;33.77
21826;BME280;11075;47.944;11.776;2023-03-14T14:17:40;93114.13;;;7.19;36.00
21826;BME280;11075;47.944;11.776;2023-03-14T14:20:23;93125.81;;;6.92;36.76
21826;BME280;11075;47.944;11.776;2023-03-14T14:23:01;93153.72;;;6.91;36.51
21826;BME280;11075;47.944;11.776;2023-03-14T14:25:29;93189.78;;;8.13;34.15
21826;BME280;11075;47.944;11.776;2023-03-14T14:27:56;93195.19;;;7.74;34.46
21826;BME280;11075;47.944;11.776;2023-03-14T14:30:29;93178.59;;;5.10;38.48
21826;BME280;11075;47.944;11.776;2023-03-14T14:33:12;93155.34;;;5.38;38.97
21826;BME280;11075;47.944;11.776;2023-03-14T14:35:51;93213.00;;;4.38;39.93